sensor_id;sensor_type;location;lat;lon;timestamp;temperature;humidity
9167;DHT22;4618;48.818;9.088;2023-05-07T00:01:04;12.30;1.00
9167;DHT22;4618;48.818;9.088;2023-05-07T00:03:31;12.20;99.90
9167;DHT22;4618;48.818;9.088;2023-05-07T00:05:57;12.20;99.90
9167;DHT22;4618;48.818;9.088;2023-05-07T00:08:23;12.30;99.90
9167;DHT22;4618;48.818;9.088;2023-05-07T00:10:48;12.30;99.90
9167;DHT22;4618;48.818;9.088;2023-05-07T00:13:14;12.30;99.90
9167;DHT22;4618;48.818;9.088;2023-05-07T00:15:40;12.30;99.90
9167;DHT22;4618;48.818;9.088;2023-05-07T00:18:05;12.20;99.90
9167;DHT22;4618;48.818;9.088;2023-05-07T00:20:31;12.10;1.00
9167;DHT22;4618;48.818;9.088;2023-05-07T00:22:56;12.00;1.00
9167;DHT22;4618;48.818;9.088;2023-05-07T00:25:22;12.00;1.00
9167;DHT22;4618;48.818;9.088;2023-05-07T00:27:47;12.00;1.00
9167;DHT22;4618;48.818;9.088;2023-05-07T00:30:13;12.00;31.60
9167;DHT22;4618;48.818;9.088;2023-05-07T00:32:38;12.00;99.90
9167;DHT22;4618;48.818;9.088;2023-05-07T00:35:04;11.80;99.90
9167;DHT22;4618;48.818;9.088;2023-05-07T00:37:30;11.80;99.90
9167;DHT22;4618;48.818;9.088;2023-05-07T00:39:55;11.90;99.90
9167;DHT22;4618;48.818;9.088;2023-05-07T00:42:21;11.90;1.00
9167;DHT22;4618;48.818;9.088;2023-05-07T00:44:46;11.90;1.00
9167;DHT22;4618;48.818;9.088;2023-05-07T00:47:12;12.00;1.00
9167;DHT22;4618;48.818;9.088;2023-05-07T00:49:39;12.00;1.00
9167;DHT22;4618;48.818;9.088;2023-05-07T00:52:09;12.00;1.00
9167;DHT22;4618;48.818;9.088;2023-05-07T00:54:34;11.90;1.00
9167;DHT22;4618;48.818;9.088;2023-05-07T00:57:01;11.80;99.90
9167;DHT22;4618;48.818;9.088;2023-05-07T00:59:27;11.70;99.90
9167;DHT22;4618;48.818;9.088;2023-05-07T01:01:52;11.70;1.00
9167;DHT22;4618;48.818;9.088;2023-05-07T01:04:18;11.70;1.00
9167;DHT22;4618;48.818;9.088;2023-05-07T01:06:44;11.70;1.00
9167;DHT22;4618;48.818;9.088;2023-05-07T01:09:10;11.60;1.00
9167;DHT22;4618;48.818;9.088;2023-05-07T01:11:36;11.60;1.00
9167;DHT22;4618;48.818;9.088;2023-05-07T01:14:01;11.60;12.20
9167;DHT22;4618;48.818;9.088;2023-05-07T01:16:27;11.70;1.00
9167;DHT22;4618;48.818;9.088;2023-05-07T01:18:52;11.70;1.00
9167;DHT22;4618;48.818;9.088;2023-05-07T01:21:18;11.70;1.00
9167;DHT22;4618;48.818;9.088;2023-05-07T01:23:44;11.70;1.00
9167;DHT22;4618;48.818;9.088;2023-05-07T01:26:10;11.60;1.00
9167;DHT22;4618;48.818;9.088;2023-05-07T01:28:35;11.50;1.00
9167;DHT22;4618;48.818;9.088;2023-05-07T01:31:02;11.50;89.50
9167;DHT22;4618;48.818;9.088;2023-05-07T01:33:29;11.40;99.10
9167;DHT22;4618;48.818;9.088;2023-05-07T01:35:56;11.40;99.90
9167;DHT22;4618;48.818;9.088;2023-05-07T01:38:23;11.40;99.90
9167;DHT22;4618;48.818;9.088;2023-05-07T01:40:49;11.50;99.90
9167;DHT22;4618;48.818;9.088;2023-05-07T01:43:15;11.60;99.90
9167;DHT22;4618;48.818;9.088;2023-05-07T01:45:40;11.60;2.90
9167;DHT22;4618;48.818;9.088;2023-05-07T01:48:07;11.60;99.90
9167;DHT22;4618;48.818;9.088;2023-05-07T01:50:33;11.60;99.90
9167;DHT22;4618;48.818;9.088;2023-05-07T01:52:59;11.70;1.00
9167;DHT22;4618;48.818;9.088;2023-05-07T01:55:26;11.70;1.00
9167;DHT22;4618;48.818;9.088;2023-05-07T01:57:51;11.70;1.00
9167;DHT22;4618;48.818;9.088;2023-05-07T02:00:17;11.70;1.00
9167;DHT22;4618;48.818;9.088;2023-05-07T02:02:42;11.70;1.00
9167;DHT22;4618;48.818;9.088;2023-05-07T02:05:08;11.70;1.00
9167;DHT22;4618;48.818;9.088;2023-05-07T02:07:34;11.70;1.00
9167;DHT22;4618;48.818;9.088;2023-05-07T02:09:59;11.60;1.00
9167;DHT22;4618;48.818;9.088;2023-05-07T02:12:24;11.50;1.00
9167;DHT22;4618;48.818;9.088;2023-05-07T02:14:50;11.50;1.00
9167;DHT22;4618;48.818;9.088;2023-05-07T02:17:15;11.40;43.30
9167;DHT22;4618;48.818;9.088;2023-05-07T02:19:41;11.30;99.90
9167;DHT22;4618;48.818;9.088;2023-05-07T02:22:07;11.30;99.90
9167;DHT22;4618;48.818;9.088;2023-05-07T02:24:32;11.20;1.00
9167;DHT22;4618;48.818;9.088;2023-05-07T02:26:58;11.10;1.00
9167;DHT22;4618;48.818;9.088;2023-05-07T02:29:23;11.10;1.00
9167;DHT22;4618;48.818;9.088;2023-05-07T02:31:49;11.10;1.00
9167;DHT22;4618;48.818;9.088;2023-05-07T02:34:16;11.10;1.00
9167;DHT22;4618;48.818;9.088;2023-05-07T02:36:42;11.00;1.00
9167;DHT22;4618;48.818;9.088;2023-05-07T02:39:07;11.00;1.00
9167;DHT22;4618;48.818;9.088;2023-05-07T02:41:33;11.00;99.90
9167;DHT22;4618;48.818;9.088;2023-05-07T02:43:58;11.00;99.90
9167;DHT22;4618;48.818;9.088;2023-05-07T02:46:24;11.00;99.90
9167;DHT22;4618;48.818;9.088;2023-05-07T02:48:49;10.90;99.90
9167;DHT22;4618;48.818;9.088;2023-05-07T02:51:16;10.90;99.90
9167;DHT22;4618;48.818;9.088;2023-05-07T02:53:41;10.80;99.90
9167;DHT22;4618;48.818;9.088;2023-05-07T02:56:07;10.70;99.90
9167;DHT22;4618;48.818;9.088;2023-05-07T02:58:32;10.60;1.00
9167;DHT22;4618;48.818;9.088;2023-05-07T03:00:58;10.70;1.00
9167;DHT22;4618;48.818;9.088;2023-05-07T03:03:24;10.70;1.00
9167;DHT22;4618;48.818;9.088;2023-05-07T03:05:49;10.70;1.00
9167;DHT22;4618;48.818;9.088;2023-05-07T03:08:15;10.70;1.00
9167;DHT22;4618;48.818;9.088;2023-05-07T03:10:40;10.70;9.90
9167;DHT22;4618;48.818;9.088;2023-05-07T03:13:06;10.80;1.00
9167;DHT22;4618;48.818;9.088;2023-05-07T03:15:31;10.80;1.00
9167;DHT22;4618;48.818;9.088;2023-05-07T03:17:57;10.70;1.00
9167;DHT22;4618;48.818;9.088;2023-05-07T03:20:22;10.70;1.00
9167;DHT22;4618;48.818;9.088;2023-05-07T03:22:48;10.60;1.00
9167;DHT22;4618;48.818;9.088;2023-05-07T03:25:13;10.50;1.00
9167;DHT22;4618;48.818;9.088;2023-05-07T03:27:40;10.60;54.50
9167;DHT22;4618;48.818;9.088;2023-05-07T03:30:07;10.60;51.90
9167;DHT22;4618;48.818;9.088;2023-05-07T03:32:32;10.50;9.80
9167;DHT22;4618;48.818;9.088;2023-05-07T03:34:58;10.40;9.30
9167;DHT22;4618;48.818;9.088;2023-05-07T03:37:24;10.50;99.90
9167;DHT22;4618;48.818;9.088;2023-05-07T03:39:49;10.50;99.90
9167;DHT22;4618;48.818;9.088;2023-05-07T03:42:15;10.60;99.90
9167;DHT22;4618;48.818;9.088;2023-05-07T03:44:40;10.60;12.20
9167;DHT22;4618;48.818;9.088;2023-05-07T03:47:06;10.70;1.00
9167;DHT22;4618;48.818;9.088;2023-05-07T03:49:31;10.60;1.00
9167;DHT22;4618;48.818;9.088;2023-05-07T03:51:57;10.60;1.00
9167;DHT22;4618;48.818;9.088;2023-05-07T03:54:22;10.60;1.00
9167;DHT22;4618;48.818;9.088;2023-05-07T03:56:48;10.50;1.00
9167;DHT22;4618;48.818;9.088;2023-05-07T03:59:13;10.40;1.00
9167;DHT22;4618;48.818;9.088;2023-05-07T04:01:40;10.30;1.00
9167;DHT22;4618;48.818;9.088;2023-05-07T04:04:05;10.40;16.40
9167;DHT22;4618;48.818;9.088;2023-05-07T04:06:31;10.40;89.70
9167;DHT22;4618;48.818;9.088;2023-05-07T04:08:56;10.40;99.90
9167;DHT22;4618;48.818;9.088;2023-05-07T04:11:22;10.50;99.90
9167;DHT22;4618;48.818;9.088;2023-05-07T04:13:48;10.60;99.90
9167;DHT22;4618;48.818;9.088;2023-05-07T04:16:13;10.60;77.50
9167;DHT22;4618;48.818;9.088;2023-05-07T04:18:38;10.50;5.20
9167;DHT22;4618;48.818;9.088;2023-05-07T04:21:04;10.50;49.10
9167;DHT22;4618;48.818;9.088;2023-05-07T04:23:30;10.50;33.90
9167;DHT22;4618;48.818;9.088;2023-05-07T04:25:55;10.40;99.90
9167;DHT22;4618;48.818;9.088;2023-05-07T04:28:22;10.40;99.90
9167;DHT22;4618;48.818;9.088;2023-05-07T04:30:48;10.50;99.90
9167;DHT22;4618;48.818;9.088;2023-05-07T04:33:14;10.40;99.90
9167;DHT22;4618;48.818;9.088;2023-05-07T04:35:40;10.50;99.90
9167;DHT22;4618;48.818;9.088;2023-05-07T04:38:05;10.60;44.40
9167;DHT22;4618;48.818;9.088;2023-05-07T04:40:31;10.50;1.00
9167;DHT22;4618;48.818;9.088;2023-05-07T04:42:56;10.60;1.00
9167;DHT22;4618;48.818;9.088;2023-05-07T04:45:22;10.50;1.00
9167;DHT22;4618;48.818;9.088;2023-05-07T04:47:47;10.60;1.00
9167;DHT22;4618;48.818;9.088;2023-05-07T04:50:12;10.60;99.90
9167;DHT22;4618;48.818;9.088;2023-05-07T04:52:38;10.60;1.00
9167;DHT22;4618;48.818;9.088;2023-05-07T04:55:04;10.60;1.00
9167;DHT22;4618;48.818;9.088;2023-05-07T04:57:29;10.70;1.00
9167;DHT22;4618;48.818;9.088;2023-05-07T04:59:55;10.70;99.90
9167;DHT22;4618;48.818;9.088;2023-05-07T05:02:20;10.70;1.00
9167;DHT22;4618;48.818;9.088;2023-05-07T05:04:46;10.70;1.00
9167;DHT22;4618;48.818;9.088;2023-05-07T05:07:11;10.60;1.00
9167;DHT22;4618;48.818;9.088;2023-05-07T05:09:37;10.70;1.00
9167;DHT22;4618;48.818;9.088;2023-05-07T05:12:02;10.70;1.00
9167;DHT22;4618;48.818;9.088;2023-05-07T05:14:28;10.90;1.00
9167;DHT22;4618;48.818;9.088;2023-05-07T05:16:53;11.00;1.00
9167;DHT22;4618;48.818;9.088;2023-05-07T05:19:19;11.20;99.90
9167;DHT22;4618;48.818;9.088;2023-05-07T05:21:44;11.20;1.00
9167;DHT22;4618;48.818;9.088;2023-05-07T05:24:10;11.40;1.00
9167;DHT22;4618;48.818;9.088;2023-05-07T05:26:35;11.60;99.90
9167;DHT22;4618;48.818;9.088;2023-05-07T05:29:01;11.90;99.90
9167;DHT22;4618;48.818;9.088;2023-05-07T05:31:26;12.10;1.00
9167;DHT22;4618;48.818;9.088;2023-05-07T05:33:52;12.30;99.90
9167;DHT22;4618;48.818;9.088;2023-05-07T05:36:17;12.30;12.30
9167;DHT22;4618;48.818;9.088;2023-05-07T05:38:43;12.50;1.00
9167;DHT22;4618;48.818;9.088;2023-05-07T05:41:09;12.40;1.00
9167;DHT22;4618;48.818;9.088;2023-05-07T05:43:34;12.30;1.00
9167;DHT22;4618;48.818;9.088;2023-05-07T05:46:00;12.40;1.00
9167;DHT22;4618;48.818;9.088;2023-05-07T05:48:25;12.50;1.00
9167;DHT22;4618;48.818;9.088;2023-05-07T05:50:51;12.80;1.00
9167;DHT22;4618;48.818;9.088;2023-05-07T05:53:16;13.00;99.90
9167;DHT22;4618;48.818;9.088;2023-05-07T05:55:42;13.30;99.90
9167;DHT22;4618;48.818;9.088;2023-05-07T05:58:09;13.50;99.90
9167;DHT22;4618;48.818;9.088;2023-05-07T06:00:34;13.80;1.00
9167;DHT22;4618;48.818;9.088;2023-05-07T06:03:00;14.10;1.00
9167;DHT22;4618;48.818;9.088;2023-05-07T06:05:25;14.40;1.00
9167;DHT22;4618;48.818;9.088;2023-05-07T06:07:51;14.70;96.00
9167;DHT22;4618;48.818;9.088;2023-05-07T06:10:16;15.00;99.90
9167;DHT22;4618;48.818;9.088;2023-05-07T06:12:42;15.30;99.90
9167;DHT22;4618;48.818;9.088;2023-05-07T06:15:08;15.50;94.20
9167;DHT22;4618;48.818;9.088;2023-05-07T06:17:34;15.70;53.00
9167;DHT22;4618;48.818;9.088;2023-05-07T06:19:59;15.80;1.00
9167;DHT22;4618;48.818;9.088;2023-05-07T06:22:25;15.80;1.00
9167;DHT22;4618;48.818;9.088;2023-05-07T06:24:50;15.70;1.00
9167;DHT22;4618;48.818;9.088;2023-05-07T06:27:16;15.70;65.30
9167;DHT22;4618;48.818;9.088;2023-05-07T06:29:42;15.60;99.90
9167;DHT22;4618;48.818;9.088;2023-05-07T06:32:08;15.50;99.90
9167;DHT22;4618;48.818;9.088;2023-05-07T06:34:33;15.50;1.00
9167;DHT22;4618;48.818;9.088;2023-05-07T06:36:59;15.40;1.00
9167;DHT22;4618;48.818;9.088;2023-05-07T06:39:24;15.50;1.00
9167;DHT22;4618;48.818;9.088;2023-05-07T06:41:50;15.60;99.90
9167;DHT22;4618;48.818;9.088;2023-05-07T06:44:15;15.70;99.90
9167;DHT22;4618;48.818;9.088;2023-05-07T06:46:41;15.90;99.90
9167;DHT22;4618;48.818;9.088;2023-05-07T06:49:07;16.00;99.90
9167;DHT22;4618;48.818;9.088;2023-05-07T06:51:32;16.20;69.50
9167;DHT22;4618;48.818;9.088;2023-05-07T06:53:58;16.10;99.90
9167;DHT22;4618;48.818;9.088;2023-05-07T06:56:23;16.30;99.90
9167;DHT22;4618;48.818;9.088;2023-05-07T06:58:50;16.50;1.00
9167;DHT22;4618;48.818;9.088;2023-05-07T07:01:15;16.80;1.00
9167;DHT22;4618;48.818;9.088;2023-05-07T07:03:41;16.90;1.00
9167;DHT22;4618;48.818;9.088;2023-05-07T07:06:07;17.00;1.00
9167;DHT22;4618;48.818;9.088;2023-05-07T07:08:32;17.10;99.90
9167;DHT22;4618;48.818;9.088;2023-05-07T07:10:58;17.50;1.00
9167;DHT22;4618;48.818;9.088;2023-05-07T07:13:24;17.70;1.00
9167;DHT22;4618;48.818;9.088;2023-05-07T07:15:49;17.80;99.90
9167;DHT22;4618;48.818;9.088;2023-05-07T07:18:15;18.00;99.90
9167;DHT22;4618;48.818;9.088;2023-05-07T07:20:40;18.50;1.00
9167;DHT22;4618;48.818;9.088;2023-05-07T07:23:06;18.60;1.00
9167;DHT22;4618;48.818;9.088;2023-05-07T07:25:32;18.70;99.90
9167;DHT22;4618;48.818;9.088;2023-05-07T07:27:57;19.20;99.90
9167;DHT22;4618;48.818;9.088;2023-05-07T07:30:23;19.40;99.90
9167;DHT22;4618;48.818;9.088;2023-05-07T07:32:49;19.80;1.00
9167;DHT22;4618;48.818;9.088;2023-05-07T07:35:14;20.00;1.00
9167;DHT22;4618;48.818;9.088;2023-05-07T07:37:40;20.30;1.00
9167;DHT22;4618;48.818;9.088;2023-05-07T07:40:06;21.00;1.00
9167;DHT22;4618;48.818;9.088;2023-05-07T07:42:32;21.50;1.00
9167;DHT22;4618;48.818;9.088;2023-05-07T07:44:57;21.90;1.00
9167;DHT22;4618;48.818;9.088;2023-05-07T07:47:23;22.20;1.00
9167;DHT22;4618;48.818;9.088;2023-05-07T07:49:48;22.20;1.00
9167;DHT22;4618;48.818;9.088;2023-05-07T07:52:14;22.20;1.00
9167;DHT22;4618;48.818;9.088;2023-05-07T07:54:39;22.30;1.00
9167;DHT22;4618;48.818;9.088;2023-05-07T07:57:05;22.00;1.00
9167;DHT22;4618;48.818;9.088;2023-05-07T07:59:30;22.10;1.00
9167;DHT22;4618;48.818;9.088;2023-05-07T08:01:56;22.10;1.00
9167;DHT22;4618;48.818;9.088;2023-05-07T08:04:22;21.90;1.00
9167;DHT22;4618;48.818;9.088;2023-05-07T08:06:47;22.10;1.00
9167;DHT22;4618;48.818;9.088;2023-05-07T08:09:13;22.00;1.00
9167;DHT22;4618;48.818;9.088;2023-05-07T08:11:38;22.20;1.00
9167;DHT22;4618;48.818;9.088;2023-05-07T08:14:04;22.20;1.00
9167;DHT22;4618;48.818;9.088;2023-05-07T08:16:30;22.40;1.00
9167;DHT22;4618;48.818;9.088;2023-05-07T08:18:55;22.50;1.00
9167;DHT22;4618;48.818;9.088;2023-05-07T08:21:21;22.80;1.00
9167;DHT22;4618;48.818;9.088;2023-05-07T08:23:47;23.50;1.00
9167;DHT22;4618;48.818;9.088;2023-05-07T08:26:12;24.00;1.00
9167;DHT22;4618;48.818;9.088;2023-05-07T08:28:38;24.20;1.00
9167;DHT22;4618;48.818;9.088;2023-05-07T08:31:04;23.70;1.00
9167;DHT22;4618;48.818;9.088;2023-05-07T08:33:30;23.40;1.00
9167;DHT22;4618;48.818;9.088;2023-05-07T08:35:56;23.00;1.00
9167;DHT22;4618;48.818;9.088;2023-05-07T08:38:21;23.00;1.00
9167;DHT22;4618;48.818;9.088;2023-05-07T08:40:47;23.60;1.00
9167;DHT22;4618;48.818;9.088;2023-05-07T08:43:13;24.60;1.00
9167;DHT22;4618;48.818;9.088;2023-05-07T08:45:39;25.30;1.00
9167;DHT22;4618;48.818;9.088;2023-05-07T08:48:05;26.10;1.00
9167;DHT22;4618;48.818;9.088;2023-05-07T08:50:35;26.20;1.00
9167;DHT22;4618;48.818;9.088;2023-05-07T08:53:00;27.00;1.00
9167;DHT22;4618;48.818;9.088;2023-05-07T08:55:28;27.40;1.00
9167;DHT22;4618;48.818;9.088;2023-05-07T08:57:53;27.80;99.90
9167;DHT22;4618;48.818;9.088;2023-05-07T09:00:19;28.10;99.90
9167;DHT22;4618;48.818;9.088;2023-05-07T09:02:44;28.20;1.00
9167;DHT22;4618;48.818;9.088;2023-05-07T09:05:10;28.20;15.00
9167;DHT22;4618;48.818;9.088;2023-05-07T09:07:35;28.20;1.00
9167;DHT22;4618;48.818;9.088;2023-05-07T09:19:45;28.90;1.00
9167;DHT22;4618;48.818;9.088;2023-05-07T09:29:29;28.40;1.00
9167;DHT22;4618;48.818;9.088;2023-05-07T09:31:55;28.20;99.90
9167;DHT22;4618;48.818;9.088;2023-05-07T09:34:21;28.60;35.00
9167;DHT22;4618;48.818;9.088;2023-05-07T09:41:48;30.10;1.00
9167;DHT22;4618;48.818;9.088;2023-05-07T09:46:41;31.10;1.00
9167;DHT22;4618;48.818;9.088;2023-05-07T09:49:07;31.20;1.00
9167;DHT22;4618;48.818;9.088;2023-05-07T09:51:43;31.00;1.00
9167;DHT22;4618;48.818;9.088;2023-05-07T10:01:31;32.40;99.90
9167;DHT22;4618;48.818;9.088;2023-05-07T10:03:57;32.50;99.90
9167;DHT22;4618;48.818;9.088;2023-05-07T10:06:25;32.60;99.90
9167;DHT22;4618;48.818;9.088;2023-05-07T10:08:53;32.60;99.90
9167;DHT22;4618;48.818;9.088;2023-05-07T10:13:46;32.30;99.90
9167;DHT22;4618;48.818;9.088;2023-05-07T10:16:13;31.90;1.00
9167;DHT22;4618;48.818;9.088;2023-05-07T10:18:40;31.30;99.90
9167;DHT22;4618;48.818;9.088;2023-05-07T10:21:21;30.40;99.90
9167;DHT22;4618;48.818;9.088;2023-05-07T10:23:53;31.80;99.90
9167;DHT22;4618;48.818;9.088;2023-05-07T10:26:22;32.20;99.90
9167;DHT22;4618;48.818;9.088;2023-05-07T10:28:53;31.30;99.90
9167;DHT22;4618;48.818;9.088;2023-05-07T10:31:52;31.40;99.90
9167;DHT22;4618;48.818;9.088;2023-05-07T10:34:24;30.10;99.90
9167;DHT22;4618;48.818;9.088;2023-05-07T10:36:51;28.50;99.90
9167;DHT22;4618;48.818;9.088;2023-05-07T10:39:18;28.20;99.90
9167;DHT22;4618;48.818;9.088;2023-05-07T10:41:44;27.80;99.90
9167;DHT22;4618;48.818;9.088;2023-05-07T10:44:10;27.20;99.90
9167;DHT22;4618;48.818;9.088;2023-05-07T10:46:36;26.80;99.90
9167;DHT22;4618;48.818;9.088;2023-05-07T10:51:34;26.50;99.90
9167;DHT22;4618;48.818;9.088;2023-05-07T10:56:36;26.90;99.90
9167;DHT22;4618;48.818;9.088;2023-05-07T11:01:59;26.60;99.90
9167;DHT22;4618;48.818;9.088;2023-05-07T11:04:25;26.30;99.90
9167;DHT22;4618;48.818;9.088;2023-05-07T11:17:31;24.10;1.00
9167;DHT22;4618;48.818;9.088;2023-05-07T11:20:00;23.20;1.00
9167;DHT22;4618;48.818;9.088;2023-05-07T11:25:04;22.20;19.60
9167;DHT22;4618;48.818;9.088;2023-05-07T11:27:30;22.30;66.10
9167;DHT22;4618;48.818;9.088;2023-05-07T11:29:56;22.30;1.00
9167;DHT22;4618;48.818;9.088;2023-05-07T11:32:26;22.20;99.90
9167;DHT22;4618;48.818;9.088;2023-05-07T11:34:53;22.10;99.90
9167;DHT22;4618;48.818;9.088;2023-05-07T11:37:19;21.80;1.00
9167;DHT22;4618;48.818;9.088;2023-05-07T11:39:45;21.70;99.90
9167;DHT22;4618;48.818;9.088;2023-05-07T11:42:30;21.60;99.90
9167;DHT22;4618;48.818;9.088;2023-05-07T11:44:56;21.60;1.00
9167;DHT22;4618;48.818;9.088;2023-05-07T11:47:22;21.60;99.90
9167;DHT22;4618;48.818;9.088;2023-05-07T11:49:48;21.70;1.00
9167;DHT22;4618;48.818;9.088;2023-05-07T11:52:15;21.70;99.90
9167;DHT22;4618;48.818;9.088;2023-05-07T11:54:41;21.80;99.90
9167;DHT22;4618;48.818;9.088;2023-05-07T11:57:06;21.80;1.00
9167;DHT22;4618;48.818;9.088;2023-05-07T11:59:39;21.90;99.90
9167;DHT22;4618;48.818;9.088;2023-05-07T12:02:06;22.00;99.90
9167;DHT22;4618;48.818;9.088;2023-05-07T12:04:32;22.00;99.90
9167;DHT22;4618;48.818;9.088;2023-05-07T12:06:57;22.00;46.60
9167;DHT22;4618;48.818;9.088;2023-05-07T12:09:23;21.70;99.90
9167;DHT22;4618;48.818;9.088;2023-05-07T12:11:49;21.20;99.90
9167;DHT22;4618;48.818;9.088;2023-05-07T12:14:14;20.80;1.00
9167;DHT22;4618;48.818;9.088;2023-05-07T12:16:44;20.60;1.00
9167;DHT22;4618;48.818;9.088;2023-05-07T12:19:11;20.60;1.00
9167;DHT22;4618;48.818;9.088;2023-05-07T12:21:40;20.70;1.00
9167;DHT22;4618;48.818;9.088;2023-05-07T12:24:05;20.60;1.00
9167;DHT22;4618;48.818;9.088;2023-05-07T12:26:31;20.50;1.00
9167;DHT22;4618;48.818;9.088;2023-05-07T12:28:57;20.10;1.00
9167;DHT22;4618;48.818;9.088;2023-05-07T12:31:25;19.70;99.90
9167;DHT22;4618;48.818;9.088;2023-05-07T12:33:51;18.90;1.00
9167;DHT22;4618;48.818;9.088;2023-05-07T12:36:17;18.00;1.00
9167;DHT22;4618;48.818;9.088;2023-05-07T12:38:42;17.30;99.90
9167;DHT22;4618;48.818;9.088;2023-05-07T12:41:09;16.90;1.00
9167;DHT22;4618;48.818;9.088;2023-05-07T12:43:35;16.70;99.90
9167;DHT22;4618;48.818;9.088;2023-05-07T12:46:04;16.60;22.50
9167;DHT22;4618;48.818;9.088;2023-05-07T12:48:29;16.60;99.90
9167;DHT22;4618;48.818;9.088;2023-05-07T12:51:00;16.70;1.00
9167;DHT22;4618;48.818;9.088;2023-05-07T12:53:26;16.90;99.90
9167;DHT22;4618;48.818;9.088;2023-05-07T12:55:55;16.90;99.90
9167;DHT22;4618;48.818;9.088;2023-05-07T12:58:25;16.90;1.00
9167;DHT22;4618;48.818;9.088;2023-05-07T13:00:51;16.70;1.00
9167;DHT22;4618;48.818;9.088;2023-05-07T13:03:31;16.60;1.00
9167;DHT22;4618;48.818;9.088;2023-05-07T13:06:02;16.40;27.70
9167;DHT22;4618;48.818;9.088;2023-05-07T13:08:31;16.30;1.00
9167;DHT22;4618;48.818;9.088;2023-05-07T13:10:58;16.20;99.90
9167;DHT22;4618;48.818;9.088;2023-05-07T13:13:25;16.30;1.00
9167;DHT22;4618;48.818;9.088;2023-05-07T13:15:51;16.40;99.90
9167;DHT22;4618;48.818;9.088;2023-05-07T13:18:17;16.30;1.00
9167;DHT22;4618;48.818;9.088;2023-05-07T13:20:43;16.00;1.00
9167;DHT22;4618;48.818;9.088;2023-05-07T13:23:08;15.80;99.90
9167;DHT22;4618;48.818;9.088;2023-05-07T13:25:34;15.80;1.00
9167;DHT22;4618;48.818;9.088;2023-05-07T13:28:00;15.50;1.00
9167;DHT22;4618;48.818;9.088;2023-05-07T13:30:25;15.30;1.00
9167;DHT22;4618;48.818;9.088;2023-05-07T13:32:53;15.20;12.50
9167;DHT22;4618;48.818;9.088;2023-05-07T13:35:19;15.00;1.00
9167;DHT22;4618;48.818;9.088;2023-05-07T13:37:44;14.90;1.00
9167;DHT22;4618;48.818;9.088;2023-05-07T13:40:10;15.00;1.00
9167;DHT22;4618;48.818;9.088;2023-05-07T13:42:36;15.00;1.00
9167;DHT22;4618;48.818;9.088;2023-05-07T13:45:02;15.00;99.90
9167;DHT22;4618;48.818;9.088;2023-05-07T13:47:30;15.00;99.90
9167;DHT22;4618;48.818;9.088;2023-05-07T13:49:56;15.00;1.00
9167;DHT22;4618;48.818;9.088;2023-05-07T13:52:21;15.10;1.00
9167;DHT22;4618;48.818;9.088;2023-05-07T13:54:47;15.10;1.00
9167;DHT22;4618;48.818;9.088;2023-05-07T13:57:12;15.10;99.90
9167;DHT22;4618;48.818;9.088;2023-05-07T13:59:38;15.20;1.00
9167;DHT22;4618;48.818;9.088;2023-05-07T14:02:03;15.30;1.00
9167;DHT22;4618;48.818;9.088;2023-05-07T14:04:30;15.40;52.20
9167;DHT22;4618;48.818;9.088;2023-05-07T14:06:56;15.40;99.90
9167;DHT22;4618;48.818;9.088;2023-05-07T14:09:21;15.50;1.00
9167;DHT22;4618;48.818;9.088;2023-05-07T14:11:47;15.60;99.90
9167;DHT22;4618;48.818;9.088;2023-05-07T14:14:19;15.70;90.80
9167;DHT22;4618;48.818;9.088;2023-05-07T14:16:45;15.80;99.90
9167;DHT22;4618;48.818;9.088;2023-05-07T14:19:11;15.90;12.20
9167;DHT22;4618;48.818;9.088;2023-05-07T14:21:37;15.80;1.00
9167;DHT22;4618;48.818;9.088;2023-05-07T14:24:02;15.70;99.90
9167;DHT22;4618;48.818;9.088;2023-05-07T14:26:28;15.70;1.00
9167;DHT22;4618;48.818;9.088;2023-05-07T14:28:54;15.60;1.00
9167;DHT22;4618;48.818;9.088;2023-05-07T14:31:22;15.60;1.00
9167;DHT22;4618;48.818;9.088;2023-05-07T14:33:48;15.60;99.90
9167;DHT22;4618;48.818;9.088;2023-05-07T14:36:15;15.60;99.90
9167;DHT22;4618;48.818;9.088;2023-05-07T14:38:40;15.50;99.90
9167;DHT22;4618;48.818;9.088;2023-05-07T14:41:06;15.50;91.10
9167;DHT22;4618;48.818;9.088;2023-05-07T14:43:31;15.50;55.60
9167;DHT22;4618;48.818;9.088;2023-05-07T14:45:57;15.40;99.90
9167;DHT22;4618;48.818;9.088;2023-05-07T14:48:22;15.50;99.90
9167;DHT22;4618;48.818;9.088;2023-05-07T14:50:48;15.50;1.00
9167;DHT22;4618;48.818;9.088;2023-05-07T14:53:14;15.70;1.00
9167;DHT22;4618;48.818;9.088;2023-05-07T14:55:39;15.80;99.90
9167;DHT22;4618;48.818;9.088;2023-05-07T14:58:05;16.00;99.90
9167;DHT22;4618;48.818;9.088;2023-05-07T15:00:31;16.00;99.90
9167;DHT22;4618;48.818;9.088;2023-05-07T15:03:07;16.20;99.90
9167;DHT22;4618;48.818;9.088;2023-05-07T15:05:33;16.30;87.20
9167;DHT22;4618;48.818;9.088;2023-05-07T15:07:58;16.20;1.00
9167;DHT22;4618;48.818;9.088;2023-05-07T15:10:24;16.20;99.90
9167;DHT22;4618;48.818;9.088;2023-05-07T15:12:50;16.00;99.90
9167;DHT22;4618;48.818;9.088;2023-05-07T15:15:16;15.90;1.00
9167;DHT22;4618;48.818;9.088;2023-05-07T15:17:41;15.90;1.00
9167;DHT22;4618;48.818;9.088;2023-05-07T15:20:07;16.00;94.70
9167;DHT22;4618;48.818;9.088;2023-05-07T15:22:33;16.10;99.90
9167;DHT22;4618;48.818;9.088;2023-05-07T15:24:59;16.30;1.00
9167;DHT22;4618;48.818;9.088;2023-05-07T15:27:25;16.40;99.90
9167;DHT22;4618;48.818;9.088;2023-05-07T15:29:51;16.50;1.00
9167;DHT22;4618;48.818;9.088;2023-05-07T15:32:17;16.70;1.00
9167;DHT22;4618;48.818;9.088;2023-05-07T15:34:42;16.70;99.90
9167;DHT22;4618;48.818;9.088;2023-05-07T15:37:08;16.80;1.00
9167;DHT22;4618;48.818;9.088;2023-05-07T15:39:33;17.00;99.90
9167;DHT22;4618;48.818;9.088;2023-05-07T15:41:59;17.10;99.90
9167;DHT22;4618;48.818;9.088;2023-05-07T15:44:25;17.30;1.00
9167;DHT22;4618;48.818;9.088;2023-05-07T15:46:55;17.50;99.90
9167;DHT22;4618;48.818;9.088;2023-05-07T15:49:21;17.70;1.00
9167;DHT22;4618;48.818;9.088;2023-05-07T15:51:47;17.80;1.00
9167;DHT22;4618;48.818;9.088;2023-05-07T15:54:13;17.80;99.90
9167;DHT22;4618;48.818;9.088;2023-05-07T15:56:38;17.90;99.90
9167;DHT22;4618;48.818;9.088;2023-05-07T15:59:04;17.90;99.90
9167;DHT22;4618;48.818;9.088;2023-05-07T16:01:30;17.80;99.90
9167;DHT22;4618;48.818;9.088;2023-05-07T16:03:57;17.90;1.00
9167;DHT22;4618;48.818;9.088;2023-05-07T16:06:23;18.00;1.00
9167;DHT22;4618;48.818;9.088;2023-05-07T16:08:48;18.00;99.90
9167;DHT22;4618;48.818;9.088;2023-05-07T16:11:14;17.90;99.90
9167;DHT22;4618;48.818;9.088;2023-05-07T16:13:39;17.80;1.00
9167;DHT22;4618;48.818;9.088;2023-05-07T16:16:05;17.70;1.00
9167;DHT22;4618;48.818;9.088;2023-05-07T16:18:30;17.70;1.00
9167;DHT22;4618;48.818;9.088;2023-05-07T16:20:57;17.70;99.90
9167;DHT22;4618;48.818;9.088;2023-05-07T16:23:24;17.70;99.90
9167;DHT22;4618;48.818;9.088;2023-05-07T16:25:50;17.70;99.90
9167;DHT22;4618;48.818;9.088;2023-05-07T16:28:15;17.60;99.90
9167;DHT22;4618;48.818;9.088;2023-05-07T16:30:41;17.40;1.00
9167;DHT22;4618;48.818;9.088;2023-05-07T16:33:07;17.30;1.00
9167;DHT22;4618;48.818;9.088;2023-05-07T16:35:32;17.10;1.00
9167;DHT22;4618;48.818;9.088;2023-05-07T16:37:58;17.00;1.00
9167;DHT22;4618;48.818;9.088;2023-05-07T16:40:24;17.00;99.90
9167;DHT22;4618;48.818;9.088;2023-05-07T16:42:49;16.90;1.00
9167;DHT22;4618;48.818;9.088;2023-05-07T16:45:15;16.90;1.00
9167;DHT22;4618;48.818;9.088;2023-05-07T16:47:41;16.80;1.00
9167;DHT22;4618;48.818;9.088;2023-05-07T16:50:07;16.70;99.90
9167;DHT22;4618;48.818;9.088;2023-05-07T16:52:32;16.50;99.90
9167;DHT22;4618;48.818;9.088;2023-05-07T16:54:58;16.50;1.00
9167;DHT22;4618;48.818;9.088;2023-05-07T16:57:28;16.60;1.00